createdAt,value
2022-12-19T00:25:49.037Z,41.66
2022-12-19T00:55:53.415Z,40.61
2022-12-19T01:25:57.111Z,40.99
2022-12-19T01:55:59.976Z,40.83
2022-12-19T02:26:03.746Z,39.40
2022-12-19T02:56:09.392Z,37.85
2022-12-19T03:26:14.401Z,38.49
2022-12-19T03:56:17.230Z,39.73
2022-12-19T04:26:20.755Z,38.75
2022-12-19T04:56:23.979Z,38.61
2022-12-19T05:26:27.291Z,38.84
2022-12-19T05:56:30.590Z,37.38
2022-12-19T06:26:33.981Z,39.45
2022-12-19T06:56:37.215Z,37.47
2022-12-19T07:26:40.129Z,39.80
2022-12-19T07:56:43.482Z,40.76
2022-12-19T08:26:47.820Z,40.83
2022-12-19T08:56:51.178Z,38.75
2022-12-19T09:26:54.786Z,44.54
2022-12-19T09:56:57.931Z,46.58
2022-12-19T10:27:02.344Z,48.11
2022-12-19T10:57:05.524Z,44.88
2022-12-19T11:30:39.083Z,49.85
2022-12-19T11:57:31.807Z,52.53
2022-12-19T12:31:46.923Z,52.38
2022-12-19T12:57:58.220Z,54.24
2022-12-19T13:28:02.044Z,51.48
2022-12-19T13:58:04.875Z,50.87
2022-12-19T14:28:21.196Z,54.02
2022-12-19T14:58:52.427Z,51.30
2022-12-19T15:28:53.646Z,54.26
2022-12-19T15:58:56.905Z,57.26
2022-12-19T16:29:00.112Z,56.12
2022-12-19T16:59:02.911Z,53.56
2022-12-19T17:29:07.171Z,52.61
2022-12-19T17:59:10.095Z,54.49
2022-12-19T18:29:13.654Z,55.81
2022-12-19T18:59:16.717Z,59.21
2022-12-19T19:29:20.219Z,58.98
2022-12-19T19:59:23.235Z,60.81
2022-12-19T20:29:27.334Z,59.90
2022-12-19T20:59:30.363Z,58.92
2022-12-19T21:29:34.512Z,57.61
2022-12-19T21:59:37.875Z,68.58
2022-12-19T22:29:41.206Z,60.75
2022-12-19T22:59:44.914Z,57.99
2022-12-19T23:29:47.826Z,56.67
2022-12-19T23:59:51.383Z,59.81
